sensor_id;sensor_type;location;lat;lon;timestamp;pressure;altitude;pressure_sealevel;temperature;humidity
37758;BME280;23599;50.304;18.928;2022-10-16T00:00:07;101892.41;;;16.87;66.03
37758;BME280;23599;50.304;18.928;2022-10-16T00:00:26;101907.88;;;16.88;66.04
37758;BME280;23599;50.304;18.928;2022-10-16T00:00:44;101903.39;;;16.87;66.07
37758;BME280;23599;50.304;18.928;2022-10-16T00:01:10;101906.15;;;16.87;66.09
37758;BME280;23599;50.304;18.928;2022-10-16T00:01:29;101896.05;;;16.88;66.09
37758;BME280;23599;50.304;18.928;2022-10-16T00:01:42;101897.76;;;16.89;66.06
37758;BME280;23599;50.304;18.928;2022-10-16T00:01:56;101898.62;;;16.89;66.02
37758;BME280;23599;50.304;18.928;2022-10-16T00:01:58;101904.11;;;16.89;66.02
37758;BME280;23599;50.304;18.928;2022-10-16T00:02:11;101897.76;;;16.89;66.01
37758;BME280;23599;50.304;18.928;2022-10-16T00:02:24;101912.21;;;16.91;66.02
37758;BME280;23599;50.304;18.928;2022-10-16T00:02:37;101904.97;;;16.90;66.02
37758;BME280;23599;50.304;18.928;2022-10-16T00:02:50;101902.08;;;16.92;66.04
37758;BME280;23599;50.304;18.928;2022-10-16T00:03:03;101914.96;;;16.91;66.04
37758;BME280;23599;50.304;18.928;2022-10-16T00:03:17;101897.76;;;16.89;66.01
37758;BME280;23599;50.304;18.928;2022-10-16T00:03:32;101898.62;;;16.89;66.00
37758;BME280;23599;50.304;18.928;2022-10-16T00:03:45;101909.46;;;16.91;66.02
37758;BME280;23599;50.304;18.928;2022-10-16T00:04:00;101910.31;;;16.92;66.00
37758;BME280;23599;50.304;18.928;2022-10-16T00:04:14;101896.58;;;16.92;66.03
37758;BME280;23599;50.304;18.928;2022-10-16T00:04:27;101897.44;;;16.92;66.04
37758;BME280;23599;50.304;18.928;2022-10-16T00:04:39;101902.92;;;16.92;66.04
37758;BME280;23599;50.304;18.928;2022-10-16T00:04:54;101912.92;;;16.93;66.04
37758;BME280;23599;50.304;18.928;2022-10-16T00:05:07;101895.55;;;16.93;66.04
37758;BME280;23599;50.304;18.928;2022-10-16T00:05:11;101904.67;;;16.93;66.04
37758;BME280;23599;50.304;18.928;2022-10-16T00:05:24;101911.18;;;16.92;66.03
37758;BME280;23599;50.304;18.928;2022-10-16T00:05:42;101902.78;;;16.94;66.02
37758;BME280;23599;50.304;18.928;2022-10-16T00:05:59;101900.04;;;16.94;66.01
37758;BME280;23599;50.304;18.928;2022-10-16T00:06:14;101898.29;;;16.93;66.00
37758;BME280;23599;50.304;18.928;2022-10-16T00:06:28;101905.54;;;16.94;65.99
37758;BME280;23599;50.304;18.928;2022-10-16T00:06:41;101898.29;;;16.93;65.98
37758;BME280;23599;50.304;18.928;2022-10-16T00:06:55;101900.04;;;16.94;66.00
37758;BME280;23599;50.304;18.928;2022-10-16T00:06:59;101903.79;;;16.93;66.15
37758;BME280;23599;50.304;18.928;2022-10-16T00:07:04;101900.04;;;16.94;66.05
37758;BME280;23599;50.304;18.928;2022-10-16T00:07:17;101900.04;;;16.94;65.99
37758;BME280;23599;50.304;18.928;2022-10-16T00:07:30;101908.42;;;16.92;65.99
37758;BME280;23599;50.304;18.928;2022-10-16T00:07:43;101901.05;;;16.93;66.02
37758;BME280;23599;50.304;18.928;2022-10-16T00:07:56;101900.18;;;16.92;66.03
37758;BME280;23599;50.304;18.928;2022-10-16T00:08:09;101913.92;;;16.92;66.04
37758;BME280;23599;50.304;18.928;2022-10-16T00:08:23;101894.87;;;16.91;66.06
37758;BME280;23599;50.304;18.928;2022-10-16T00:08:24;101912.21;;;16.91;66.06
37758;BME280;23599;50.304;18.928;2022-10-16T00:08:40;101912.21;;;16.91;66.07
37758;BME280;23599;50.304;18.928;2022-10-16T00:08:55;101903.11;;;16.91;66.09
37758;BME280;23599;50.304;18.928;2022-10-16T00:09:08;101912.34;;;16.89;66.11
37758;BME280;23599;50.304;18.928;2022-10-16T00:09:21;101909.46;;;16.91;66.12
37758;BME280;23599;50.304;18.928;2022-10-16T00:09:34;101908.75;;;16.89;66.12
37758;BME280;23599;50.304;18.928;2022-10-16T00:09:47;101910.46;;;16.90;66.14
37758;BME280;23599;50.304;18.928;2022-10-16T00:10:00;101915.95;;;16.90;66.15
37758;BME280;23599;50.304;18.928;2022-10-16T00:10:13;101906.85;;;16.89;66.16
37758;BME280;23599;50.304;18.928;2022-10-16T00:10:26;101914.24;;;16.89;66.16
37758;BME280;23599;50.304;18.928;2022-10-16T00:10:39;101906.15;;;16.87;66.16
37758;BME280;23599;50.304;18.928;2022-10-16T00:10:46;101907.88;;;16.88;66.28
37758;BME280;23599;50.304;18.928;2022-10-16T00:11:14;101906.15;;;16.87;66.16
37758;BME280;23599;50.304;18.928;2022-10-16T00:11:24;101905.29;;;16.87;66.19
37758;BME280;23599;50.304;18.928;2022-10-16T00:11:39;101903.39;;;16.87;66.20
37758;BME280;23599;50.304;18.928;2022-10-16T00:11:41;101902.54;;;16.87;66.21
37758;BME280;23599;50.304;18.928;2022-10-16T00:11:54;101912.52;;;16.88;66.21
37758;BME280;23599;50.304;18.928;2022-10-16T00:12:06;101905.29;;;16.87;66.20
37758;BME280;23599;50.304;18.928;2022-10-16T00:12:19;101902.54;;;16.87;66.22
37758;BME280;23599;50.304;18.928;2022-10-16T00:12:52;101904.44;;;16.86;66.25
37758;BME280;23599;50.304;18.928;2022-10-16T00:13:06;101902.72;;;16.85;66.26
37758;BME280;23599;50.304;18.928;2022-10-16T00:13:19;101906.32;;;16.86;66.26
37758;BME280;23599;50.304;18.928;2022-10-16T00:13:35;101904.44;;;16.86;66.28
37758;BME280;23599;50.304;18.928;2022-10-16T00:13:50;101902.72;;;16.85;66.29
37758;BME280;23599;50.304;18.928;2022-10-16T00:14:07;101908.22;;;16.85;66.31
37758;BME280;23599;50.304;18.928;2022-10-16T00:14:21;101901.69;;;16.86;66.38
37758;BME280;23599;50.304;18.928;2022-10-16T00:14:34;101904.44;;;16.86;66.28
37758;BME280;23599;50.304;18.928;2022-10-16T00:14:47;101904.44;;;16.86;66.28
37758;BME280;23599;50.304;18.928;2022-10-16T00:14:48;101902.72;;;16.85;66.28
37758;BME280;23599;50.304;18.928;2022-10-16T00:15:01;101906.32;;;16.86;66.28
37758;BME280;23599;50.304;18.928;2022-10-16T00:15:15;101909.92;;;16.86;66.27
37758;BME280;23599;50.304;18.928;2022-10-16T00:15:28;101909.06;;;16.86;66.28
37758;BME280;23599;50.304;18.928;2022-10-16T00:15:41;101904.44;;;16.86;66.28
37758;BME280;23599;50.304;18.928;2022-10-16T00:15:57;101904.44;;;16.86;66.29
37758;BME280;23599;50.304;18.928;2022-10-16T00:16:11;101907.19;;;16.86;66.31
37758;BME280;23599;50.304;18.928;2022-10-16T00:16:25;101903.39;;;16.87;66.31
37758;BME280;23599;50.304;18.928;2022-10-16T00:16:38;101907.88;;;16.88;66.29
37758;BME280;23599;50.304;18.928;2022-10-16T00:16:51;101900.65;;;16.87;66.27
37758;BME280;23599;50.304;18.928;2022-10-16T00:17:04;101904.29;;;16.88;66.27
37758;BME280;23599;50.304;18.928;2022-10-16T00:17:17;101908.75;;;16.89;66.28
37758;BME280;23599;50.304;18.928;2022-10-16T00:17:30;101906.00;;;16.89;66.28
37758;BME280;23599;50.304;18.928;2022-10-16T00:17:43;101901.54;;;16.88;66.26
37758;BME280;23599;50.304;18.928;2022-10-16T00:17:47;101903.26;;;16.89;66.45
37758;BME280;23599;50.304;18.928;2022-10-16T00:17:50;101895.16;;;16.87;66.24
37758;BME280;23599;50.304;18.928;2022-10-16T00:17:52;101902.39;;;16.88;66.18
37758;BME280;23599;50.304;18.928;2022-10-16T00:18:06;101899.47;;;16.90;66.24
37758;BME280;23599;50.304;18.928;2022-10-16T00:18:21;101899.47;;;16.90;66.24
37758;BME280;23599;50.304;18.928;2022-10-16T00:18:34;101900.18;;;16.92;66.24
37758;BME280;23599;50.304;18.928;2022-10-16T00:18:47;101901.36;;;16.89;66.37
37758;BME280;23599;50.304;18.928;2022-10-16T00:19:01;101910.31;;;16.92;66.21
37758;BME280;23599;50.304;18.928;2022-10-16T00:19:14;101899.32;;;16.92;66.21
37758;BME280;23599;50.304;18.928;2022-10-16T00:19:27;101899.32;;;16.92;66.21
37758;BME280;23599;50.304;18.928;2022-10-16T00:19:41;101907.57;;;16.92;66.20
37758;BME280;23599;50.304;18.928;2022-10-16T00:19:53;101899.32;;;16.92;66.21
37758;BME280;23599;50.304;18.928;2022-10-16T00:20:07;101903.96;;;16.91;66.21
37758;BME280;23599;50.304;18.928;2022-10-16T00:20:20;101894.87;;;16.91;66.22
37758;BME280;23599;50.304;18.928;2022-10-16T00:20:35;101904.97;;;16.90;66.22
37758;BME280;23599;50.304;18.928;2022-10-16T00:20:49;101895.87;;;16.89;66.23
37758;BME280;23599;50.304;18.928;2022-10-16T00:21:04;101908.75;;;16.89;66.14
37758;BME280;23599;50.304;18.928;2022-10-16T00:21:31;101897.76;;;16.89;66.25
37758;BME280;23599;50.304;18.928;2022-10-16T00:21:45;101899.79;;;16.87;66.23
37758;BME280;23599;50.304;18.928;2022-10-16T00:22:00;101901.54;;;16.88;66.21
37758;BME280;23599;50.304;18.928;2022-10-16T00:22:13;101903.39;;;16.87;66.21
37758;BME280;23599;50.304;18.928;2022-10-16T00:22:25;101904.44;;;16.86;66.23
37758;BME280;23599;50.304;18.928;2022-10-16T00:22:38;101900.65;;;16.87;66.25
37758;BME280;23599;50.304;18.928;2022-10-16T00:22:52;101901.69;;;16.86;66.28
37758;BME280;23599;50.304;18.928;2022-10-16T00:23:05;101899.79;;;16.87;66.30
37758;BME280;23599;50.304;18.928;2022-10-16T00:23:21;101906.15;;;16.87;66.27
37758;BME280;23599;50.304;18.928;2022-10-16T00:23:34;101899.79;;;16.87;66.29
37758;BME280;23599;50.304;18.928;2022-10-16T00:23:53;101908.89;;;16.87;66.29
37758;BME280;23599;50.304;18.928;2022-10-16T00:24:08;101894.30;;;16.87;66.28
37758;BME280;23599;50.304;18.928;2022-10-16T00:24:10;101895.16;;;16.87;66.29
37758;BME280;23599;50.304;18.928;2022-10-16T00:24:23;101900.65;;;16.87;66.28
37758;BME280;23599;50.304;18.928;2022-10-16T00:24:36;101907.04;;;16.88;66.27
37758;BME280;23599;50.304;18.928;2022-10-16T00:24:49;101902.54;;;16.87;66.26
37758;BME280;23599;50.304;18.928;2022-10-16T00:24:54;101889.66;;;16.87;66.23
37758;BME280;23599;50.304;18.928;2022-10-16T00:25:08;101895.16;;;16.87;66.26
37758;BME280;23599;50.304;18.928;2022-10-16T00:25:21;101904.29;;;16.88;66.25
37758;BME280;23599;50.304;18.928;2022-10-16T00:25:34;101895.16;;;16.87;66.25
37758;BME280;23599;50.304;18.928;2022-10-16T00:25:56;101900.65;;;16.87;66.25
37758;BME280;23599;50.304;18.928;2022-10-16T00:26:04;101903.57;;;16.86;66.21
37758;BME280;23599;50.304;18.928;2022-10-16T00:26:13;101901.69;;;16.86;66.30
37758;BME280;23599;50.304;18.928;2022-10-16T00:26:30;101907.19;;;16.86;66.23
37758;BME280;23599;50.304;18.928;2022-10-16T00:26:46;101901.69;;;16.86;66.22
37758;BME280;23599;50.304;18.928;2022-10-16T00:27:01;101899.97;;;16.85;66.22
37758;BME280;23599;50.304;18.928;2022-10-16T00:27:16;101900.82;;;16.86;66.24
37758;BME280;23599;50.304;18.928;2022-10-16T00:27:17;101900.82;;;16.86;66.22
37758;BME280;23599;50.304;18.928;2022-10-16T00:27:30;101899.97;;;16.85;66.26
37758;BME280;23599;50.304;18.928;2022-10-16T00:27:43;101909.06;;;16.86;66.25
37758;BME280;23599;50.304;18.928;2022-10-16T00:27:56;101910.06;;;16.85;66.28
37758;BME280;23599;50.304;18.928;2022-10-16T00:28:09;101899.97;;;16.85;66.29
37758;BME280;23599;50.304;18.928;2022-10-16T00:28:22;101906.46;;;16.84;66.30
37758;BME280;23599;50.304;18.928;2022-10-16T00:28:36;101902.01;;;16.83;66.32
37758;BME280;23599;50.304;18.928;2022-10-16T00:28:50;101899.26;;;16.83;66.32
37758;BME280;23599;50.304;18.928;2022-10-16T00:29:04;101901.15;;;16.83;66.32
37758;BME280;23599;50.304;18.928;2022-10-16T00:29:17;101907.49;;;16.83;66.34
37758;BME280;23599;50.304;18.928;2022-10-16T00:29:30;101903.01;;;16.82;66.33
37758;BME280;23599;50.304;18.928;2022-10-16T00:29:43;101901.30;;;16.81;66.34
37758;BME280;23599;50.304;18.928;2022-10-16T00:29:56;101901.30;;;16.81;66.36
37758;BME280;23599;50.304;18.928;2022-10-16T00:30:09;101900.44;;;16.81;66.37
37758;BME280;23599;50.304;18.928;2022-10-16T00:30:22;101901.47;;;16.80;66.39
37758;BME280;23599;50.304;18.928;2022-10-16T00:30:24;101905.07;;;16.80;66.39
37758;BME280;23599;50.304;18.928;2022-10-16T00:30:42;101897.84;;;16.79;66.39
37758;BME280;23599;50.304;18.928;2022-10-16T00:30:55;101907.97;;;16.79;66.42
37758;BME280;23599;50.304;18.928;2022-10-16T00:31:11;101898.02;;;16.78;66.43
37758;BME280;23599;50.304;18.928;2022-10-16T00:31:24;101903.62;;;16.76;66.45
37758;BME280;23599;50.304;18.928;2022-10-16T00:31:37;101904.48;;;16.77;66.45
37758;BME280;23599;50.304;18.928;2022-10-16T00:31:50;101909.97;;;16.77;66.46
37758;BME280;23599;50.304;18.928;2022-10-16T00:32:04;101909.97;;;16.77;66.48
37758;BME280;23599;50.304;18.928;2022-10-16T00:32:19;101905.51;;;16.76;66.49
37758;BME280;23599;50.304;18.928;2022-10-16T00:32:32;101904.65;;;16.75;66.49
37758;BME280;23599;50.304;18.928;2022-10-16T00:32:45;101906.55;;;16.75;66.50
37758;BME280;23599;50.304;18.928;2022-10-16T00:32:59;101910.29;;;16.74;66.50
37758;BME280;23599;50.304;18.928;2022-10-16T00:33:12;101905.66;;;16.74;66.51
37758;BME280;23599;50.304;18.928;2022-10-16T00:33:25;101903.95;;;16.73;66.55
37758;BME280;23599;50.304;18.928;2022-10-16T00:33:26;101912.18;;;16.73;66.55
37758;BME280;23599;50.304;18.928;2022-10-16T00:33:40;101903.09;;;16.73;66.57
37758;BME280;23599;50.304;18.928;2022-10-16T00:33:53;101906.84;;;16.72;66.59
37758;BME280;23599;50.304;18.928;2022-10-16T00:34:07;101906.15;;;16.70;66.62
37758;BME280;23599;50.304;18.928;2022-10-16T00:34:20;101899.63;;;16.71;66.66
37758;BME280;23599;50.304;18.928;2022-10-16T00:34:33;101908.72;;;16.71;66.69
37758;BME280;23599;50.304;18.928;2022-10-16T00:34:46;101898.77;;;16.70;66.72
37758;BME280;23599;50.304;18.928;2022-10-16T00:34:59;101906.29;;;16.68;66.73
37758;BME280;23599;50.304;18.928;2022-10-16T00:35:12;101906.29;;;16.68;66.74
37758;BME280;23599;50.304;18.928;2022-10-16T00:35:25;101904.59;;;16.67;66.77
37758;BME280;23599;50.304;18.928;2022-10-16T00:35:38;101903.69;;;16.66;66.79
37758;BME280;23599;50.304;18.928;2022-10-16T00:35:51;101903.69;;;16.66;66.80
37758;BME280;23599;50.304;18.928;2022-10-16T00:36:05;101908.33;;;16.66;66.84
37758;BME280;23599;50.304;18.928;2022-10-16T00:36:21;101903.01;;;16.64;66.89
37758;BME280;23599;50.304;18.928;2022-10-16T00:36:34;101899.38;;;16.64;66.91
37758;BME280;23599;50.304;18.928;2022-10-16T00:36:36;101899.38;;;16.64;66.91
37758;BME280;23599;50.304;18.928;2022-10-16T00:36:50;101904.01;;;16.63;66.92
37758;BME280;23599;50.304;18.928;2022-10-16T00:37:03;101901.44;;;16.62;66.94
37758;BME280;23599;50.304;18.928;2022-10-16T00:37:17;101899.70;;;16.61;66.98
37758;BME280;23599;50.304;18.928;2022-10-16T00:37:30;101897.98;;;16.60;67.02
37758;BME280;23599;50.304;18.928;2022-10-16T00:37:45;101900.59;;;16.61;67.03
37758;BME280;23599;50.304;18.928;2022-10-16T00:37:58;101896.09;;;16.60;67.05
37758;BME280;23599;50.304;18.928;2022-10-16T00:38:11;101896.27;;;16.59;67.04
37758;BME280;23599;50.304;18.928;2022-10-16T00:38:24;101901.77;;;16.59;67.04
37758;BME280;23599;50.304;18.928;2022-10-16T00:38:37;101903.61;;;16.58;67.08
37758;BME280;23599;50.304;18.928;2022-10-16T00:38:53;101900.02;;;16.58;67.09
37758;BME280;23599;50.304;18.928;2022-10-16T00:39:07;101902.04;;;16.56;67.13
37758;BME280;23599;50.304;18.928;2022-10-16T00:39:20;101900.02;;;16.58;67.15
37758;BME280;23599;50.304;18.928;2022-10-16T00:39:33;101901.90;;;16.57;67.17
37758;BME280;23599;50.304;18.928;2022-10-16T00:39:46;101899.15;;;16.57;67.19
37758;BME280;23599;50.304;18.928;2022-10-16T00:39:48;101902.94;;;16.56;67.18
37758;BME280;23599;50.304;18.928;2022-10-16T00:40:01;101902.04;;;16.56;67.19
37758;BME280;23599;50.304;18.928;2022-10-16T00:40:15;101902.04;;;16.56;67.21
37758;BME280;23599;50.304;18.928;2022-10-16T00:40:28;101901.19;;;16.55;67.23
37758;BME280;23599;50.304;18.928;2022-10-16T00:40:42;101899.48;;;16.54;67.25
37758;BME280;23599;50.304;18.928;2022-10-16T00:40:55;101904.11;;;16.54;67.27
37758;BME280;23599;50.304;18.928;2022-10-16T00:41:12;101900.47;;;16.53;67.28
37758;BME280;23599;50.304;18.928;2022-10-16T00:41:28;101905.11;;;16.53;67.29
37758;BME280;23599;50.304;18.928;2022-10-16T00:41:41;101904.25;;;16.52;67.31
37758;BME280;23599;50.304;18.928;2022-10-16T00:41:56;101902.54;;;16.51;67.32
37758;BME280;23599;50.304;18.928;2022-10-16T00:42:17;101898.90;;;16.51;67.35
37758;BME280;23599;50.304;18.928;2022-10-16T00:42:30;101911.77;;;16.50;67.38
37758;BME280;23599;50.304;18.928;2022-10-16T00:42:43;101902.69;;;16.50;67.37
37758;BME280;23599;50.304;18.928;2022-10-16T00:42:56;101898.23;;;16.49;67.37
37758;BME280;23599;50.304;18.928;2022-10-16T00:42:57;101900.97;;;16.49;67.37
37758;BME280;23599;50.304;18.928;2022-10-16T00:43:56;101898.37;;;16.47;67.34
37758;BME280;23599;50.304;18.928;2022-10-16T00:44:01;101901.11;;;16.47;67.39
37758;BME280;23599;50.304;18.928;2022-10-16T00:44:49;101906.59;;;16.47;67.39
37758;BME280;23599;50.304;18.928;2022-10-16T00:45:05;101900.40;;;16.45;67.37
37758;BME280;23599;50.304;18.928;2022-10-16T00:45:10;101894.05;;;16.44;67.19
37758;BME280;23599;50.304;18.928;2022-10-16T00:45:14;101892.16;;;16.45;67.29
37758;BME280;23599;50.304;18.928;2022-10-16T00:45:28;101910.52;;;16.44;67.34
37758;BME280;23599;50.304;18.928;2022-10-16T00:45:42;101910.52;;;16.44;67.38
37758;BME280;23599;50.304;18.928;2022-10-16T00:45:55;101903.31;;;16.43;67.41
37758;BME280;23599;50.304;18.928;2022-10-16T00:46:35;101898.82;;;16.42;67.47
37758;BME280;23599;50.304;18.928;2022-10-16T00:46:50;101899.86;;;16.41;67.49
37758;BME280;23599;50.304;18.928;2022-10-16T00:47:03;101899.14;;;16.39;67.50
37758;BME280;23599;50.304;18.928;2022-10-16T00:47:22;101907.37;;;16.39;67.55
37758;BME280;23599;50.304;18.928;2022-10-16T00:47:40;101901.88;;;16.39;67.61
37758;BME280;23599;50.304;18.928;2022-10-16T00:47:58;101903.05;;;16.37;67.63
37758;BME280;23599;50.304;18.928;2022-10-16T00:48:12;101898.59;;;16.36;67.69
37758;BME280;23599;50.304;18.928;2022-10-16T00:48:27;101902.20;;;16.36;67.72
37758;BME280;23599;50.304;18.928;2022-10-16T00:48:40;101905.98;;;16.35;67.76
37758;BME280;23599;50.304;18.928;2022-10-16T00:49:19;101907.99;;;16.33;67.84
37758;BME280;23599;50.304;18.928;2022-10-16T00:49:24;101914.49;;;16.32;67.74
37758;BME280;23599;50.304;18.928;2022-10-16T00:49:25;101917.09;;;16.34;67.85
37758;BME280;23599;50.304;18.928;2022-10-16T00:49:39;101911.61;;;16.34;67.87
37758;BME280;23599;50.304;18.928;2022-10-16T00:49:58;101913.49;;;16.33;67.89
37758;BME280;23599;50.304;18.928;2022-10-16T00:50:22;101917.23;;;16.32;67.91
37758;BME280;23599;50.304;18.928;2022-10-16T00:50:36;101921.87;;;16.32;67.89
37758;BME280;23599;50.304;18.928;2022-10-16T00:50:50;101911.74;;;16.32;67.91
37758;BME280;23599;50.304;18.928;2022-10-16T00:51:06;101914.49;;;16.32;67.92
37758;BME280;23599;50.304;18.928;2022-10-16T00:51:23;101908.14;;;16.32;67.92
37758;BME280;23599;50.304;18.928;2022-10-16T00:51:40;101915.52;;;16.31;67.93
37758;BME280;23599;50.304;18.928;2022-10-16T00:51:54;101921.01;;;16.31;67.95
37758;BME280;23599;50.304;18.928;2022-10-16T00:52:07;101913.81;;;16.30;67.94
37758;BME280;23599;50.304;18.928;2022-10-16T00:52:20;101918.27;;;16.31;68.08
37758;BME280;23599;50.304;18.928;2022-10-16T00:52:33;101913.81;;;16.30;67.97
37758;BME280;23599;50.304;18.928;2022-10-16T00:52:37;101909.17;;;16.31;67.99
37758;BME280;23599;50.304;18.928;2022-10-16T00:52:52;101913.81;;;16.30;68.01
37758;BME280;23599;50.304;18.928;2022-10-16T00:53:06;101907.44;;;16.30;68.02
37758;BME280;23599;50.304;18.928;2022-10-16T00:53:19;101912.06;;;16.29;68.04
37758;BME280;23599;50.304;18.928;2022-10-16T00:53:33;101912.06;;;16.29;68.06
37758;BME280;23599;50.304;18.928;2022-10-16T00:53:46;101915.84;;;16.28;68.09
37758;BME280;23599;50.304;18.928;2022-10-16T00:54:00;101912.91;;;16.30;68.10
37758;BME280;23599;50.304;18.928;2022-10-16T00:54:17;101915.84;;;16.28;68.12
37758;BME280;23599;50.304;18.928;2022-10-16T00:54:33;101909.49;;;16.28;68.14
37758;BME280;23599;50.304;18.928;2022-10-16T00:54:47;101915.12;;;16.26;68.16
37758;BME280;23599;50.304;18.928;2022-10-16T00:55:03;101916.16;;;16.25;68.18
37758;BME280;23599;50.304;18.928;2022-10-16T00:55:20;101913.41;;;16.25;68.20
37758;BME280;23599;50.304;18.928;2022-10-16T00:55:34;101912.55;;;16.24;68.25
37758;BME280;23599;50.304;18.928;2022-10-16T00:55:47;101916.46;;;16.22;68.27
37758;BME280;23599;50.304;18.928;2022-10-16T00:55:49;101907.06;;;16.24;68.29
37758;BME280;23599;50.304;18.928;2022-10-16T00:55:54;101903.73;;;16.21;68.36
37758;BME280;23599;50.304;18.928;2022-10-16T00:56:09;101920.91;;;16.23;68.29
37758;BME280;23599;50.304;18.928;2022-10-16T00:56:22;101917.31;;;16.22;68.31
37758;BME280;23599;50.304;18.928;2022-10-16T00:56:27;101910.97;;;16.22;68.23
37758;BME280;23599;50.304;18.928;2022-10-16T00:56:42;101910.97;;;16.22;68.31
37758;BME280;23599;50.304;18.928;2022-10-16T00:56:59;101914.57;;;16.22;68.33
37758;BME280;23599;50.304;18.928;2022-10-16T00:57:13;101913.71;;;16.22;68.35
37758;BME280;23599;50.304;18.928;2022-10-16T00:57:26;101909.22;;;16.21;68.35
37758;BME280;23599;50.304;18.928;2022-10-16T00:57:39;101907.34;;;16.21;68.36
37758;BME280;23599;50.304;18.928;2022-10-16T00:57:52;101917.46;;;16.21;68.35
37758;BME280;23599;50.304;18.928;2022-10-16T00:58:05;101909.22;;;16.21;68.39
37758;BME280;23599;50.304;18.928;2022-10-16T00:58:18;101908.37;;;16.20;68.39
37758;BME280;23599;50.304;18.928;2022-10-16T00:58:32;101909.40;;;16.19;68.42
37758;BME280;23599;50.304;18.928;2022-10-16T00:58:45;101915.75;;;16.20;68.44
37758;BME280;23599;50.304;18.928;2022-10-16T00:58:59;101913.01;;;16.20;68.45
37758;BME280;23599;50.304;18.928;2022-10-16T00:59:31;101914.88;;;16.19;68.49
37758;BME280;23599;50.304;18.928;2022-10-16T00:59:45;101914.88;;;16.19;68.49
37758;BME280;23599;50.304;18.928;2022-10-16T00:59:59;101913.99;;;16.19;68.49
37758;BME280;23599;50.304;18.928;2022-10-16T01:00:19;101911.25;;;16.19;68.51
37758;BME280;23599;50.304;18.928;2022-10-16T01:00:34;101911.25;;;16.19;68.52
37758;BME280;23599;50.304;18.928;2022-10-16T01:00:48;101913.14;;;16.18;68.53
37758;BME280;23599;50.304;18.928;2022-10-16T01:01:01;101912.15;;;16.19;68.54
37758;BME280;23599;50.304;18.928;2022-10-16T01:01:13;101915.02;;;16.18;68.54
37758;BME280;23599;50.304;18.928;2022-10-16T01:01:26;101909.54;;;16.18;68.55
37758;BME280;23599;50.304;18.928;2022-10-16T01:01:40;101915.02;;;16.18;68.57
37758;BME280;23599;50.304;18.928;2022-10-16T01:01:54;101917.77;;;16.18;68.59
37758;BME280;23599;50.304;18.928;2022-10-16T01:02:13;101903.20;;;16.17;68.61
37758;BME280;23599;50.304;18.928;2022-10-16T01:02:16;101916.05;;;16.17;68.61
37758;BME280;23599;50.304;18.928;2022-10-16T01:02:29;101920.52;;;16.18;68.63
37758;BME280;23599;50.304;18.928;2022-10-16T01:02:42;101909.54;;;16.18;68.64
37758;BME280;23599;50.304;18.928;2022-10-16T01:02:58;101909.54;;;16.18;68.64
37758;BME280;23599;50.304;18.928;2022-10-16T01:03:37;101917.77;;;16.18;68.62
37758;BME280;23599;50.304;18.928;2022-10-16T01:03:51;101912.42;;;16.16;68.59
37758;BME280;23599;50.304;18.928;2022-10-16T01:04:04;101914.16;;;16.17;68.58
37758;BME280;23599;50.304;18.928;2022-10-16T01:04:18;101915.02;;;16.18;68.58
37758;BME280;23599;50.304;18.928;2022-10-16T01:04:37;101913.31;;;16.17;68.60
37758;BME280;23599;50.304;18.928;2022-10-16T01:04:52;101915.16;;;16.16;68.62
37758;BME280;23599;50.304;18.928;2022-10-16T01:05:06;101918.94;;;16.15;68.63
37758;BME280;23599;50.304;18.928;2022-10-16T01:05:24;101917.06;;;16.16;68.64
37758;BME280;23599;50.304;18.928;2022-10-16T01:05:51;101919.80;;;16.16;68.65
37758;BME280;23599;50.304;18.928;2022-10-16T01:06:24;101922.54;;;16.16;68.65
37758;BME280;23599;50.304;18.928;2022-10-16T01:06:36;101925.28;;;16.16;68.63
37758;BME280;23599;50.304;18.928;2022-10-16T01:06:56;101921.68;;;16.15;68.60
37758;BME280;23599;50.304;18.928;2022-10-16T01:07:20;101920.82;;;16.15;68.60
37758;BME280;23599;50.304;18.928;2022-10-16T01:08:37;101921.82;;;16.14;68.56
37758;BME280;23599;50.304;18.928;2022-10-16T01:10:57;101917.37;;;16.13;68.44
37758;BME280;23599;50.304;18.928;2022-10-16T01:11:22;101919.26;;;16.12;68.40
37758;BME280;23599;50.304;18.928;2022-10-16T01:13:38;101918.40;;;16.12;68.39
37758;BME280;23599;50.304;18.928;2022-10-16T01:13:55;101915.66;;;16.12;68.41
37758;BME280;23599;50.304;18.928;2022-10-16T01:14:17;101916.66;;;16.11;68.43
37758;BME280;23599;50.304;18.928;2022-10-16T01:15:08;101910.31;;;16.10;68.50
37758;BME280;23599;50.304;18.928;2022-10-16T01:16:01;101909.59;;;16.08;68.53
37758;BME280;23599;50.304;18.928;2022-10-16T01:16:13;101912.32;;;16.08;68.55
37758;BME280;23599;50.304;18.928;2022-10-16T01:16:36;101904.27;;;16.07;68.58
37758;BME280;23599;50.304;18.928;2022-10-16T01:17:01;101916.96;;;16.08;68.60
37758;BME280;23599;50.304;18.928;2022-10-16T01:17:28;101912.51;;;16.07;68.64
37758;BME280;23599;50.304;18.928;2022-10-16T01:18:43;101910.76;;;16.06;68.71
37758;BME280;23599;50.304;18.928;2022-10-16T01:18:54;101908.02;;;16.06;68.73
37758;BME280;23599;50.304;18.928;2022-10-16T01:19:24;101913.66;;;16.04;68.73
37758;BME280;23599;50.304;18.928;2022-10-16T01:20:08;101914.52;;;16.05;68.74
37758;BME280;23599;50.304;18.928;2022-10-16T01:20:27;101923.79;;;16.04;68.77
37758;BME280;23599;50.304;18.928;2022-10-16T01:20:54;101918.30;;;16.04;68.81
37758;BME280;23599;50.304;18.928;2022-10-16T01:21:37;101917.41;;;16.03;68.85
37758;BME280;23599;50.304;18.928;2022-10-16T01:21:52;101911.06;;;16.02;68.87